CheckWX is a tool to help pilots better visualize weather data.  It is not intended as a substitute for an official pre-flight weather briefing.

20:52:50 UTC

KSLR METAR
Sulphur Springs Municipal Airport
Sulphur Springs, Texas, USA
Current

18 mins ago

KSLR 202035Z AUTO 24010KT 200V260 10SM CLR 24/09 A3004 RMK AO2 T02380086
Observed
Apr-20 @ 20:35 UTC
Wind
  • 240° at 10 KTS
Visibility
10 SM
Flight Rules
VFR
Cloud Levels
  • Clear skies
Temperature
24°C / 75°F
Dewpoint
C / 48°F
Humidity
39%
Altimeter
30.04" Hg
Pressure
1017.32 hPa
Previous

38 mins ago

KSLR 202015Z AUTO 23008KT 10SM CLR 24/09 A3005 RMK AO2 T02370089
Observed
Apr-20 @ 20:15 UTC
Wind
  • 230° at 8 KTS
Visibility
10 SM
Flight Rules
VFR
Cloud Levels
  • Clear skies
Temperature
24°C / 75°F
Dewpoint
C / 48°F
Humidity
39%
Altimeter
30.05" Hg
Pressure
1017.62 hPa
Previous

58 mins ago

KSLR 201955Z AUTO 21009KT 10SM CLR 23/08 A3006 RMK AO2 T02330079
Observed
Apr-20 @ 19:55 UTC
Wind
  • 210° at 9 KTS
Visibility
10 SM
Flight Rules
VFR
Cloud Levels
  • Clear skies
Temperature
23°C / 73°F
Dewpoint
C / 46°F
Humidity
38%
Altimeter
30.06" Hg
Pressure
1017.92 hPa